KOTH

Southwest Oregon Regional Airport

North Bend, Oregon, USA
METAR KOTH 151156Z AUTO 00000KT 1/4SM -RA FG FU OVC002 07/07 A3033 RMK AO2 RAB01 SLP269 P0000 60000 T00670067 10089 20050 58007 RVRNO
Observed Flight Rules
Nov-15 @ 11:56 UTC (48 minutes ago) Instrument Flight Rules
Visibility Clouds Conditions
1/4 miles
  • Overcast at 200' AGL
  • Light Rain
  • Fog
  • Smoke
Temperatures Readings Precipitation
Current 7°C / 45°F
Dewpoint 7°C / 45°F
Humidity 100%
Altimeter 30.33" Hg
Pressure 1026.9 hPa
Elevation 4
Current Rain 0.005
METAR KOTH 151156Z AUTO 00000KT 1/4SM -RA FG FU OVC002 07/07 A3033 RMK AO2 RAB01 SLP269 P0000 60000 T00670067 10089 20050 58007 RVRNO
Observed Flight Rules
Nov-15 @ 11:56 UTC
(48 minutes ago)
LIFR
Clouds
  • Overcast at 200' AGL
Conditions
  • Light Rain
  • Fog
  • Smoke
Temperature Dewpoint
7°C / 45°F 7°C / 45°F
Humidity Altimeter Pressure
100% 30.33" Hg 1026.9 hPa
Current Rain
0.005